Flight Track Log - Related Links

Times and Time Zones

All times are in EDT time to prevent confusion due to time zone crossing. See the ACA854 flight status page for this flight to view local times or setup timezone preferences in your user account.

Time Position Orientation Groundspeed Altitude Reporting Facility
EDT Latitude Longitude Course Direction KTS MPH feet Rate Location/Type
Sun 11:05:09 PM 49.1860 -123.1720 99° East 184 212 200  Level FlightAware
Sun 11:05:37 PM 49.1830 -123.1420 99° East 187 215 1,200 2,571 Climbing FlightAware
Sun 11:05:58 PM 49.1790 -123.1080 100° East 189 217 2,300 2,533 Climbing FlightAware
Sun 11:06:22 PM 49.1750 -123.0760 101° East 193 222 3,100 1,909 Climbing FlightAware
Sun 11:06:42 PM 49.1710 -123.0490 103° East 197 227 3,700 1,364 Climbing FlightAware
Sun 11:07:06 PM 49.1670 -123.0150 100° East 225 259 4,100 1,050 Climbing FlightAware
Sun 11:07:22 PM 49.1640 -122.9870 99° East 247 284 4,400 1,467 Climbing FlightAware
Sun 11:07:51 PM 49.1720 -122.9390 76° East 271 312 5,200 1,946 Climbing FlightAware
Sun 11:07:59 PM 49.1780 -122.9280 50° Northeast 274 315 5,600 2,625 Climbing FlightAware
Sun 11:08:07 PM 49.1870 -122.9180 36° Northeast 281 323 5,900 2,143 Climbing FlightAware
Sun 11:08:27 PM 49.2110 -122.8980 29° Northeast 294 338 6,600 1,756 Climbing FlightAware
Sun 11:08:48 PM 49.2300 -122.8830 27° Northeast 300 345 7,100 2,053 Climbing FlightAware
Sun 11:09:05 PM 49.2590 -122.8620 25° Northeast 309 356 7,900 2,634 Climbing FlightAware
Sun 11:09:29 PM 49.2900 -122.8390 26° Northeast 312 359 8,900 2,441 Climbing FlightAware
Sun 11:10:04 PM 49.3340 -122.8070 25° Northeast 316 364 10,300 1,784 Climbing FlightAware
Sun 11:10:43 PM 49.3910 -122.7660 25° Northeast 358 412 11,100 1,233 Climbing FlightAware
Sun 11:11:17 PM 49.4430 -122.7190 30° Northeast 390 449 11,800 1,588 Climbing FlightAware
Sun 11:11:51 PM 49.4850 -122.6660 39° Northeast 402 463 12,900 2,813 Climbing FlightAware
Sun 11:12:21 PM 49.5330 -122.6040 40° Northeast 400 460 14,800 2,308 Climbing FlightAware
Sun 11:12:56 PM 49.5820 -122.5390 41° Northeast 433 498 15,400 1,600 Climbing FlightAware
Sun 11:13:36 PM 49.6440 -122.4580 40° Northeast 449 517 16,800 2,320 Climbing FlightAware
Sun 11:14:11 PM 49.7030 -122.3820 40° Northeast 457 526 18,300 2,261 Climbing FlightAware
Sun 11:14:45 PM 49.7550 -122.3150 40° Northeast 466 536 19,400 1,941 Climbing FlightAware
Sun 11:15:19 PM 49.8160 -122.2360 40° Northeast 479 551 20,500 1,853 Climbing FlightAware
Sun 11:15:53 PM 49.8760 -122.1590 40° Northeast 491 565 21,500 1,750 Climbing FlightAware
Sun 11:16:31 PM 49.9390 -122.0750 41° Northeast 500 575 22,600 1,833 Climbing FlightAware
Sun 11:17:05 PM 50.0030 -121.9920 40° Northeast 507 583 23,700 1,737 Climbing FlightAware
Sun 11:17:47 PM 50.0800 -121.8900 40° Northeast 519 597 24,800 1,622 Climbing FlightAware
Sun 11:18:19 PM 50.1350 -121.8180 40° Northeast 524 603 25,700 1,676 Climbing FlightAware
Sun 11:18:55 PM 50.2060 -121.7230 41° Northeast 532 612 26,700 1,421 Climbing FlightAware
Sun 11:19:35 PM 50.2650 -121.6440 41° Northeast 539 620 27,500 1,390 Climbing FlightAware
Sun 11:20:17 PM 50.3620 -121.5160 40° Northeast 550 633 28,600 1,500 Climbing FlightAware
Sun 11:20:51 PM 50.4270 -121.4270 41° Northeast 555 639 29,400 1,313 Climbing FlightAware
Sun 11:21:21 PM 50.4860 -121.3480 40° Northeast 560 644 30,000 1,393 Climbing FlightAware
Sun 11:21:47 PM 50.5360 -121.2810 40° Northeast 558 642 30,700 1,477 Climbing FlightAware
Sun 11:22:26 PM 50.6140 -121.1750 41° Northeast 560 644 31,600 1,391 Climbing FlightAware
Sun 11:22:56 PM 50.6710 -121.0970 41° Northeast 561 646 32,300 1,167 Climbing FlightAware
Sun 11:23:38 PM 50.7450 -120.9960 41° Northeast 563 648 33,000 545 Climbing FlightAware
Sun 11:24:13 PM 50.8220 -120.8910 41° Northeast 561 646 33,000  Level FlightAware
Sun 11:24:50 PM 50.8940 -120.7900 41° Northeast 561 646 33,000  Level FlightAware
Sun 11:25:22 PM 50.9570 -120.7040 41° Northeast 562 647 33,000  Level FlightAware
Sun 11:25:53 PM 51.0170 -120.6200 41° Northeast 561 646 33,000  Level FlightAware
Sun 11:26:34 PM 51.0970 -120.5080 41° Northeast 563 648 33,000  Level FlightAware
Sun 11:27:08 PM 51.1530 -120.4300 41° Northeast 563 648 33,000  Level FlightAware
Sun 11:27:40 PM 51.2260 -120.3280 41° Northeast 563 648 33,000  Level FlightAware
Sun 11:28:16 PM 51.2950 -120.2300 42° Northeast 563 648 33,000  Level FlightAware
Sun 11:28:54 PM 51.3700 -120.1230 42° Northeast 562 647 33,000  Level FlightAware
Sun 11:29:29 PM 51.4320 -120.0340 42° Northeast 561 646 33,000  Level FlightAware
Sun 11:30:08 PM 51.5130 -119.9190 41° Northeast 562 647 33,000  Level FlightAware
Sun 11:30:40 PM 51.5760 -119.8280 42° Northeast 562 647 33,000  Level FlightAware
Sun 11:31:13 PM 51.6370 -119.7400 42° Northeast 562 647 33,000  Level FlightAware
Sun 11:32:07 PM 51.7300 -119.6060 42° Northeast 562 647 33,000  Level FlightAware
Sun 11:32:41 PM 51.7850 -119.5250 42° Northeast 562 647 33,000  Level FlightAware
Sun 11:33:19 PM 51.8480 -119.4340 42° Northeast 562 647 33,000  Level FlightAware
Sun 11:34:00 PM 51.9150 -119.3350 42° Northeast 562 647 33,000  Level FlightAware
Sun 11:34:35 PM 52.0220 -119.1770 42° Northeast 33,000  Level FlightAware
Sun 11:37:00 PM 52.3000 -118.7610 42° Northeast 551 634 33,000  Level FlightAware
Sun 11:37:30 PM 52.3560 -118.6760 43° Northeast 551 634 33,000  Level FlightAware
Sun 11:38:14 PM 52.4260 -118.5700 43° Northeast 551 634 33,000  Level FlightAware
Sun 11:38:45 PM 52.4970 -118.4610 43° Northeast 551 634 33,000  Level FlightAware
Sun 11:39:15 PM 52.5530 -118.3760 43° Northeast 551 634 33,000  Level FlightAware
Sun 11:40:10 PM 52.6570 -118.2160 43° Northeast 556 640 33,000  Level FlightAware
Sun 11:40:45 PM 52.7230 -118.1150 43° Northeast 556 640 33,000  Level FlightAware
Sun 11:41:20 PM 52.7880 -118.0120 44° Northeast 557 641 33,000  Level FlightAware
Sun 11:41:58 PM 52.8530 -117.9110 43° Northeast 557 641 33,000  Level FlightAware
Sun 11:42:30 PM 52.9180 -117.8090 43° Northeast 557 641 33,000  Level FlightAware
Sun 11:43:03 PM 52.9750 -117.7200 43° Northeast 557 641 33,000  Level FlightAware
Sun 11:43:40 PM 53.0490 -117.6030 44° Northeast 555 639 33,000  Level FlightAware
Sun 11:44:15 PM 53.1140 -117.5000 44° Northeast 556 640 33,000  Level FlightAware
Sun 11:44:50 PM 53.1780 -117.3970 44° Northeast 555 639 33,000  Level FlightAware
Sun 11:45:27 PM 53.2440 -117.2920 44° Northeast 554 638 33,000  Level FlightAware
Sun 11:46:05 PM 53.3180 -117.1730 44° Northeast 546 628 33,000  Level FlightAware
Sun 11:46:43 PM 53.3810 -117.0700 44° Northeast 545 627 33,000  Level FlightAware
Sun 11:47:15 PM 53.4450 -116.9670 44° Northeast 545 627 33,000  Level FlightAware
Sun 11:47:50 PM 53.5080 -116.8630 44° Northeast 544 626 33,000  Level FlightAware
Sun 11:48:30 PM 53.5810 -116.7440 44° Northeast 544 626 33,000  Level FlightAware
Sun 11:49:16 PM 53.6620 -116.6110 44° Northeast 542 624 33,000  Level FlightAware
Sun 11:49:52 PM 53.7250 -116.5060 45° Northeast 543 625 33,000  Level FlightAware
Sun 11:50:25 PM 53.7890 -116.3990 45° Northeast 544 626 33,000  Level FlightAware
Sun 11:51:00 PM 53.8520 -116.2950 44° Northeast 545 627 33,000  Level FlightAware
Sun 11:51:35 PM 53.9150 -116.1890 45° Northeast 545 627 33,000  Level FlightAware
Sun 11:52:15 PM 53.9870 -116.0670 45° Northeast 546 628 33,000  Level FlightAware
Sun 11:52:50 PM 54.0500 -115.9610 45° Northeast 550 633 33,000  Level FlightAware
Sun 11:53:25 PM 54.1130 -115.8520 45° Northeast 550 633 33,000  Level FlightAware
Sun 11:53:58 PM 54.1660 -115.7620 45° Northeast 549 632 33,000  Level FlightAware
Sun 11:54:36 PM 54.2380 -115.6390 45° Northeast 548 631 33,000  Level FlightAware
Sun 11:55:05 PM 54.2920 -115.5480 45° Northeast 548 631 33,000  Level FlightAware
Sun 11:55:35 PM 54.3460 -115.4560 45° Northeast 548 631 33,000  Level FlightAware
Sun 11:56:15 PM 54.4170 -115.3330 45° Northeast 548 631 33,000  Level FlightAware
Sun 11:56:50 PM 54.4710 -115.2400 45° Northeast 547 629 33,000  Level FlightAware
Sun 11:57:25 PM 54.5420 -115.1160 45° Northeast 547 629 33,000  Level FlightAware
Sun 11:58:00 PM 54.6040 -115.0070 45° Northeast 546 628 33,000  Level FlightAware
Sun 11:58:40 PM 54.6740 -114.8840 45° Northeast 540 621 33,000  Level FlightAware
Sun 11:59:20 PM 54.7440 -114.7600 46° Northeast 541 623 33,000  Level FlightAware
Sun 11:59:55 PM 54.8070 -114.6480 46° Northeast 548 631 33,000  Level FlightAware
Mon 12:00:32 AM 54.8610 -114.5530 45° Northeast 543 625 33,000  Level FlightAware
Mon 12:01:02 AM 54.9020 -114.4790 46° Northeast 542 624 33,000  Level FlightAware
Mon 12:01:43 AM 54.9940 -114.3130 46° Northeast 548 631 33,000  Level FlightAware
Mon 12:02:13 AM 55.0380 -114.2330 46° Northeast 548 631 33,000  Level FlightAware
Mon 12:02:50 AM 55.1090 -114.1040 46° Northeast 548 631 33,000  Level FlightAware
Mon 12:03:24 AM 55.1620 -114.0080 46° Northeast 548 631 33,000  Level FlightAware
Mon 12:03:58 AM 55.2330 -113.8780 46° Northeast 546 628 33,000  Level FlightAware
Mon 12:04:32 AM 55.2720 -113.8060 46° Northeast 546 628 33,000  Level FlightAware
Mon 12:05:09 AM 55.3450 -113.6710 46° Northeast 545 627 33,000  Level FlightAware
Mon 12:05:53 AM 55.4080 -113.5550 46° Northeast 546 628 33,000  Level FlightAware
Mon 12:06:48 AM 55.5050 -113.3750 46° Northeast 546 628 33,000  Level FlightAware
Mon 12:07:24 AM 55.5760 -113.2380 47° Northeast 546 628 33,000  Level FlightAware
Mon 12:08:04 AM 55.6350 -113.1270 47° Northeast 546 628 33,000  Level FlightAware
Mon 12:08:38 AM 55.6850 -113.0320 47° Northeast 546 628 33,000  Level FlightAware
Mon 12:09:17 AM 55.7420 -112.9230 47° Northeast 546 628 33,000  Level FlightAware
Mon 12:11:16 AM 55.9730 -112.4760 47° Northeast 547 629 33,000  Level FlightAware
Mon 12:12:03 AM 56.0390 -112.3480 47° Northeast 547 629 33,000  Level FlightAware
Mon 12:12:37 AM 56.0890 -112.2530 47° Northeast 547 629 33,000  Level FlightAware
Mon 12:13:12 AM 56.1400 -112.1540 47° Northeast 547 629 33,000  Level FlightAware
Mon 12:13:47 AM 56.1920 -112.0550 47° Northeast 547 629 33,000  Level FlightAware
Mon 12:15:10 AM 56.3667 -111.7000 47° Northeast 540 621 33,000  Level Edmonton Center
Mon 12:16:10 AM 56.4667 -111.4667 52° Northeast 540 621 33,000  Level Edmonton Center
Mon 12:17:10 AM 56.5500 -111.2833 50° Northeast 540 621 33,000  Level Edmonton Center
Mon 12:18:10 AM 56.6667 -111.0833 43° Northeast 530 610 33,000  Level Edmonton Center
Mon 12:19:10 AM 56.7667 -110.8833 48° Northeast 530 610 33,000  Level Edmonton Center
Mon 12:20:10 AM 56.8500 -110.6667 55° Northeast 530 610 33,000  Level Edmonton Center
Mon 12:21:10 AM 56.9500 -110.4667 47° Northeast 530 610 33,000  Level Edmonton Center
Mon 12:22:10 AM 57.0500 -110.2667 47° Northeast 530 610 33,000  Level Edmonton Center
Mon 12:23:10 AM 57.1500 -110.0333 52° Northeast 530 610 33,000  Level Edmonton Center
Mon 12:24:10 AM 57.2500 -109.8167 49° Northeast 540 621 33,000  Level Edmonton Center
Mon 12:25:10 AM 57.3667 -109.6167 43° Northeast 540 621 33,000  Level Edmonton Center
Mon 12:26:10 AM 57.4500 -109.4167 52° Northeast 540 621 33,000  Level Edmonton Center
Mon 12:27:10 AM 57.5500 -109.2000 49° Northeast 540 621 33,000  Level Edmonton Center
Mon 12:28:10 AM 57.6333 -108.9833 54° Northeast 530 610 33,000  Level Edmonton Center
Mon 12:29:10 AM 57.7500 -108.7500 47° Northeast 530 610 33,000  Level Edmonton Center
Mon 12:30:10 AM 57.8333 -108.5333 54° Northeast 530 610 33,000  Level Edmonton Center
Mon 12:31:10 AM 57.9333 -108.3167 49° Northeast 530 610 33,000  Level Edmonton Center
Mon 12:32:10 AM 58.0167 -108.1000 54° Northeast 530 610 33,000  Level Edmonton Center
Mon 12:33:10 AM 58.1333 -107.8833 44° Northeast 530 610 33,000  Level Edmonton Center
Mon 12:34:10 AM 58.2167 -107.6667 54° Northeast 530 610 33,000  Level Edmonton Center
Mon 12:35:10 AM 58.3000 -107.4500 54° Northeast 530 610 33,000  Level Edmonton Center
Mon 12:36:10 AM 58.4000 -107.2333 49° Northeast 530 610 33,000  Level Edmonton Center
Mon 12:37:10 AM 58.4833 -107.0000 56° Northeast 530 610 33,000  Level Edmonton Center
Mon 12:38:10 AM 58.5667 -106.7833 54° Northeast 530 610 33,000  Level Edmonton Center
Mon 12:39:10 AM 58.6833 -106.5667 44° Northeast 530 610 33,000  Level Edmonton Center
Mon 12:40:10 AM 58.7667 -106.3333 55° Northeast 530 610 33,000 150 Level Edmonton Center
Mon 12:41:10 AM 58.8500 -106.1000 55° Northeast 520 598 33,300 400 Climbing Edmonton Center
Mon 12:42:10 AM 58.9500 -105.8833 48° Northeast 520 598 33,800 350 Climbing Edmonton Center
Mon 12:43:10 AM 59.0333 -105.6500 55° Northeast 520 598 34,000 100 Climbing Edmonton Center
Mon 12:44:10 AM 59.1333 -105.4167 50° Northeast 520 598 34,000  Level Edmonton Center
Mon 12:45:10 AM 59.2167 -105.1833 55° Northeast 510 587 34,000  Level Edmonton Center
Mon 12:46:10 AM 59.3000 -104.9667 53° Northeast 510 587 34,000  Level Edmonton Center
Mon 12:47:10 AM 59.3833 -104.7667 51° Northeast 510 587 34,000  Level Edmonton Center
Mon 12:48:10 AM 59.4667 -104.4833 60° Northeast 510 587 34,000  Level Edmonton Center
Mon 12:49:10 AM 59.5500 -104.2500 55° Northeast 510 587 34,000  Level Edmonton Center
Mon 12:50:10 AM 59.6500 -104.0500 45° Northeast 510 587 34,000  Level Edmonton Center
Mon 12:51:10 AM 59.7333 -103.8167 55° Northeast 510 587 34,000  Level Edmonton Center
Mon 12:52:10 AM 59.8167 -103.5667 56° Northeast 510 587 34,000  Level Edmonton Center
Mon 12:53:10 AM 59.9000 -103.3333 54° Northeast 510 587 34,000  Level Edmonton Center
Mon 12:54:10 AM 59.9833 -103.1333 50° Northeast 510 587 34,000  Level Edmonton Center
Mon 12:55:10 AM 60.0667 -102.8833 56° Northeast 500 575 34,000  Level Edmonton Center
Mon 12:56:10 AM 60.1333 -102.6333 62° Northeast 510 587 34,000  Level Edmonton Center
Mon 12:57:10 AM 60.2000 -102.4000 60° Northeast 510 587 34,000  Level Edmonton Center
Mon 12:58:10 AM 60.3000 -102.1833 47° Northeast 500 575 34,000  Level Edmonton Center
Mon 12:59:10 AM 60.3667 -101.9333 62° Northeast 500 575 34,000  Level Edmonton Center
Mon 01:00:10 AM 60.4500 -101.6833 56° Northeast 500 575 34,000  Level Edmonton Center
Mon 01:01:10 AM 60.5167 -101.4667 58° Northeast 500 575 34,000  Level Edmonton Center
Mon 01:02:10 AM 60.6000 -101.1833 59° Northeast 510 587 34,000  Level Edmonton Center
Mon 01:03:10 AM 60.6833 -100.9667 52° Northeast 500 575 34,000  Level Edmonton Center
Mon 01:04:10 AM 60.7500 -100.7167 61° Northeast 500 575 34,000  Level Edmonton Center
Mon 01:05:10 AM 60.8333 -100.4667 56° Northeast 500 575 34,000  Level Edmonton Center
Mon 01:06:10 AM 60.9167 -100.2333 54° Northeast 500 575 34,000  Level Edmonton Center
Mon 01:07:10 AM 60.9833 -99.9833 61° Northeast 500 575 34,000  Level Edmonton Center
Mon 01:08:10 AM 61.0667 -99.7333 55° Northeast 500 575 34,000  Level Edmonton Center
Mon 01:09:10 AM 61.1333 -99.5000 59° Northeast 500 575 34,000  Level Edmonton Center
Mon 01:10:10 AM 61.2167 -99.2500 55° Northeast 500 575 34,000  Level Edmonton Center
Mon 01:11:10 AM 61.2833 -98.9833 62° Northeast 500 575 34,000  Level Edmonton Center
Mon 01:12:10 AM 61.3500 -98.7167 62° Northeast 500 575 34,000  Level Edmonton Center
Mon 01:13:10 AM 61.4333 -98.4833 53° Northeast 510 587 34,000  Level Edmonton Center
Mon 01:14:10 AM 61.5000 -98.2167 62° Northeast 510 587 34,000  Level Edmonton Center
Mon 01:15:10 AM 61.5833 -97.9500 57° Northeast 500 575 34,000  Level Edmonton Center
Mon 01:16:10 AM 61.6500 -97.7333 57° Northeast 500 575 34,000  Level Edmonton Center
Mon 01:17:10 AM 61.7333 -97.4500 58° Northeast 500 575 34,000  Level Edmonton Center
Mon 01:18:10 AM 61.8000 -97.1833 62° Northeast 510 587 34,000  Level Edmonton Center
Mon 01:19:10 AM 61.8833 -96.9500 53° Northeast 510 587 34,000  Level Edmonton Center
Mon 01:20:10 AM 61.9500 -96.6667 63° Northeast 510 587 34,000  Level Edmonton Center
Mon 01:21:10 AM 62.0167 -96.4000 62° Northeast 510 587 34,000  Level Edmonton Center
Mon 01:22:10 AM 62.0833 -96.1333 62° Northeast 510 587 34,000  Level Edmonton Center
Mon 01:23:10 AM 62.1500 -95.8833 60° Northeast 510 587 34,000  Level Edmonton Center
Mon 01:24:10 AM 62.2167 -95.6167 62° Northeast 510 587 34,000  Level Edmonton Center
Mon 01:25:10 AM 62.2833 -95.3333 63° Northeast 510 587 34,000  Level Edmonton Center
Mon 01:26:10 AM 62.3500 -95.0500 63° Northeast 510 587 34,000  Level Edmonton Center
Mon 01:27:10 AM 62.4167 -94.7667 63° Northeast 510 587 34,000  Level Edmonton Center
Mon 01:28:10 AM 62.5000 -94.4833 57° Northeast 510 587 34,000  Level Edmonton Center
Mon 01:29:10 AM 62.5500 -94.2333 66° East 520 598 34,000  Level Edmonton Center
Mon 01:30:10 AM 62.6333 -93.9500 57° Northeast 510 587 34,000  Level Edmonton Center
Mon 01:31:10 AM 62.7000 -93.6667 63° Northeast 520 598 34,000  Level Edmonton Center
Mon 01:32:10 AM 62.7667 -93.3833 63° Northeast 510 587 34,000  Level Edmonton Center
Mon 01:33:10 AM 62.8167 -93.0833 70° East 510 587 34,000  Level Edmonton Center
Mon 01:34:10 AM 62.9000 -92.8000 57° Northeast 520 598 34,000  Level Edmonton Center
Mon 01:35:10 AM 62.9667 -92.5000 64° Northeast 520 598 34,000  Level Edmonton Center
Mon 01:36:10 AM 63.0167 -92.2167 69° East 520 598 34,000  Level Edmonton Center
Mon 01:37:10 AM 63.0833 -91.9167 64° Northeast 520 598 34,000  Level Edmonton Center
Mon 01:38:10 AM 63.1333 -91.6167 70° East 520 598 34,000  Level Edmonton Center
Mon 01:39:10 AM 63.2167 -91.3167 58° Northeast 520 598 34,000  Level Edmonton Center
Mon 01:40:10 AM 63.2667 -91.0667 66° East 510 587 34,000  Level Edmonton Center
Mon 01:41:10 AM 63.3333 -90.7667 64° Northeast 520 598 34,000  Level Edmonton Center
Mon 01:42:10 AM 63.3833 -90.4667 69° East 520 598 34,000  Level Edmonton Center
Mon 01:43:10 AM 63.4500 -90.1667 63° Northeast 520 598 34,000  Level Edmonton Center
Mon 01:44:10 AM 63.5000 -89.8667 69° East 520 598 34,000  Level Edmonton Center
Mon 01:45:10 AM 63.5667 -89.5500 65° Northeast 520 598 34,000  Level Edmonton Center
Mon 01:46:10 AM 63.6167 -89.2500 69° East 510 587 34,000  Level Edmonton Center
Mon 01:47:10 AM 63.6833 -88.9500 63° Northeast 510 587 34,000  Level Edmonton Center
Mon 01:48:10 AM 63.7333 -88.6833 67° East 510 587 34,000  Level Edmonton Center
Mon 01:49:10 AM 63.7833 -88.3667 70° East 510 587 34,000  Level Edmonton Center
Mon 01:50:10 AM 63.8333 -88.0667 69° East 510 587 34,000  Level Edmonton Center
Mon 01:51:10 AM 63.8833 -87.7500 70° East 510 587 34,000  Level Edmonton Center
Mon 01:52:10 AM 63.9333 -87.4500 69° East 510 587 34,000  Level Edmonton Center
Mon 01:53:10 AM 63.9833 -87.1333 70° East 510 587 34,000  Level Edmonton Center
Mon 01:54:10 AM 64.0333 -86.8667 67° East 510 587 34,000  Level Edmonton Center
Mon 01:55:10 AM 64.1000 -86.5333 65° Northeast 510 587 34,000  Level Edmonton Center
Mon 01:56:10 AM 64.1500 -86.2167 70° East 510 587 34,000  Level Edmonton Center
Mon 01:57:10 AM 64.2000 -85.9000 70° East 510 587 34,000  Level Edmonton Center
Mon 01:58:10 AM 64.2500 -85.5833 70° East 510 587 34,000  Level Edmonton Center
Mon 01:59:10 AM 64.2833 -85.2667 76° East 510 587 34,000  Level Edmonton Center
Mon 02:00:10 AM 64.3333 -84.9500 70° East 510 587 34,000  Level Edmonton Center
Mon 02:01:10 AM 64.3833 -84.6667 68° East 510 587 34,000  Level Edmonton Center
Mon 02:02:10 AM 64.4333 -84.3500 70° East 510 587 34,000  Level Edmonton Center
Mon 02:03:10 AM 64.4833 -84.0167 71° East 510 587 34,000  Level Edmonton Center
Mon 02:04:10 AM 64.5333 -83.7000 70° East 510 587 34,000  Level Edmonton Center
Mon 02:05:10 AM 64.5667 -83.3833 76° East 510 587 34,000  Level Edmonton Center
Mon 02:06:10 AM 64.6000 -83.0500 77° East 510 587 34,000  Level Edmonton Center
Mon 02:07:10 AM 64.6500 -82.7333 70° East 510 587 34,000  Level Edmonton Center
Mon 02:08:10 AM 64.6833 -82.4000 77° East 510 587 34,000  Level Edmonton Center
Mon 02:09:10 AM 64.7333 -82.1167 67° East 510 587 34,000  Level Edmonton Center
Mon 02:10:10 AM 64.7667 -81.7833 77° East 510 587 34,000  Level Edmonton Center
Mon 02:11:10 AM 64.8167 -81.4500 70° East 510 587 34,000  Level Edmonton Center
Mon 02:12:10 AM 64.8500 -81.1167 77° East 510 587 34,000  Level Edmonton Center
Mon 02:13:10 AM 64.8833 -80.7833 77° East 510 587 34,000  Level Edmonton Center
Mon 02:14:10 AM 64.9333 -80.4833 68° East 510 587 34,000 150 Level Edmonton Center
Mon 02:15:10 AM 64.9667 -80.1667 76° East 510 587 34,300 500 Climbing Edmonton Center
Mon 02:16:10 AM 65.0000 -79.8333 77° East 500 575 35,000 350 Climbing Edmonton Center
Mon 02:17:10 AM 65.0333 -79.5333 75° East 500 575 35,000  Level Edmonton Center
Mon 02:18:10 AM 65.0833 -79.1833 71° East 500 575 35,000  Level Edmonton Center
Mon 02:19:10 AM 65.1167 -78.8833 75° East 500 575 35,000  Level Edmonton Center
Mon 02:20:10 AM 65.1667 -78.5833 68° East 500 575 35,000  Level Edmonton Center
Mon 02:21:10 AM 65.2000 -78.2333 77° East 500 575 35,000  Level Edmonton Center
Mon 02:22:10 AM 65.2333 -77.9333 75° East 500 575 35,000  Level Edmonton Center
Mon 02:23:10 AM 65.2833 -77.6167 69° East 500 575 35,000  Level Edmonton Center
Mon 02:24:10 AM 65.3167 -77.2833 76° East 500 575 35,000  Level Edmonton Center
Mon 02:25:10 AM 65.3500 -76.9833 75° East 500 575 35,000  Level Edmonton Center
Mon 02:26:10 AM 65.4000 -76.6167 72° East 500 575 35,000  Level Edmonton Center
Mon 02:27:10 AM 65.4167 -76.3167 82° East 500 575 35,000  Level Edmonton Center
Mon 02:28:10 AM 65.4667 -76.0000 69° East 500 575 35,000  Level Edmonton Center
Mon 02:29:10 AM 65.5000 -75.6500 77° East 500 575 35,000  Level Edmonton Center
Mon 02:30:10 AM 65.5333 -75.3500 75° East 500 575 35,000  Level Edmonton Center
Mon 02:31:10 AM 65.5667 -75.0167 76° East 500 575 35,000  Level Edmonton Center
Mon 02:32:10 AM 65.5833 -74.6833 83° East 500 575 35,000  Level Edmonton Center
Mon 02:33:10 AM 65.6333 -74.3500 70° East 500 575 35,000  Level Edmonton Center
Mon 02:34:10 AM 65.6667 -74.0333 76° East 500 575 35,000  Level Edmonton Center
Mon 02:35:10 AM 65.6833 -73.7000 83° East 500 575 35,000  Level Edmonton Center
Mon 02:36:10 AM 65.7167 -73.3667 76° East 500 575 35,000  Level Edmonton Center
Mon 02:37:10 AM 65.7333 -73.0167 83° East 500 575 35,000  Level Edmonton Center
Mon 02:38:10 AM 65.7833 -72.6833 70° East 500 575 35,000  Level Edmonton Center
Mon 02:39:10 AM 65.8000 -72.3833 82° East 500 575 35,000  Level Edmonton Center
Mon 02:40:10 AM 65.8167 -72.0333 83° East 500 575 35,000  Level Edmonton Center
Mon 02:41:10 AM 65.8500 -71.7000 76° East 500 575 35,000  Level Edmonton Center
Mon 02:42:10 AM 65.8833 -71.3833 75° East 510 587 35,000  Level Edmonton Center
Mon 02:43:10 AM 65.9000 -71.0167 83° East 510 587 35,000  Level Edmonton Center
Mon 02:44:10 AM 65.9333 -70.7000 75° East 510 587 35,000  Level Edmonton Center
Mon 02:45:10 AM 65.9500 -70.3333 83° East 510 587 35,000  Level Edmonton Center
Mon 02:46:10 AM 65.9667 -70.0167 82° East 510 587 35,000  Level Edmonton Center
Mon 02:47:10 AM 65.9833 -69.6667 83° East 510 587 35,000  Level Edmonton Center
Mon 02:48:10 AM 65.9833 -69.3167 90° East 510 587 35,000  Level Edmonton Center
Mon 02:49:10 AM 66.0000 -68.9667 83° East 520 598 35,000  Level Edmonton Center
Mon 02:50:10 AM 66.0167 -68.6000 83° East 520 598 35,000  Level Edmonton Center
Mon 02:51:10 AM 66.0333 -68.2333 83° East 520 598 35,000  Level Edmonton Center
Mon 02:52:10 AM 66.0333 -67.9500 90° East 510 587 35,000  Level Edmonton Center
Mon 02:53:10 AM 66.0333 -67.5333 90° East 540 621 35,000  Level Edmonton Center
Mon 02:54:10 AM 66.0333 -67.1833 90° East 520 598 35,000  Level Edmonton Center
Mon 02:55:10 AM 66.0500 -66.8333 83° East 520 598 35,000  Level Edmonton Center
Mon 02:56:10 AM 66.0500 -66.4833 90° East 510 587 35,000  Level Edmonton Center
Mon 02:57:10 AM 66.0500 -66.1333 90° East 520 598 35,000  Level Edmonton Center
Mon 02:58:10 AM 66.0500 -65.7833 90° East 520 598 35,000  Level Edmonton Center
Mon 02:59:10 AM 66.0500 -65.4333 90° East 520 598 35,000  Level Edmonton Center
Mon 03:00:10 AM 66.0500 -65.0833 90° East 520 598 35,000  Level Edmonton Center
Mon 03:01:10 AM 66.0667 -64.7167 83° East 520 598 35,000  Level Edmonton Center
Mon 03:02:10 AM 66.0667 -64.3667 90° East 520 598 35,000  Level Edmonton Center
Mon 03:03:10 AM 66.0500 -64.0167 97° East 520 598 35,000  Level Edmonton Center
Mon 03:04:10 AM 66.0500 -63.6667 90° East 520 598 35,000  Level Edmonton Center
Mon 03:05:10 AM 66.0500 -63.3167 90° East 520 598 35,000  Level Edmonton Center
Mon 03:06:10 AM 66.0500 -62.9667 90° East 530 610 35,000  Level Edmonton Center
Mon 03:07:10 AM 66.0333 -62.6167 97° East 530 610 35,000  Level Edmonton Center
Mon 03:08:10 AM 66.0333 -62.2667 90° East 520 598 35,000  Level Edmonton Center
Mon 03:09:10 AM 66.0167 -61.9167 97° East 520 598 35,000  Level Edmonton Center
Mon 03:10:10 AM 66.0333 -61.5500 83° East 520 598 35,000  Level Edmonton Center
Mon 03:11:10 AM 66.0167 -61.2000 97° East 530 610 35,000  Level Edmonton Center
Mon 03:12:10 AM 66.0000 -60.8500 97° East 530 610 35,000  Level Edmonton Center
Mon 03:13:10 AM 66.0000 -60.5000 90° East 530 610 35,000  Level Edmonton Center
Mon 03:14:10 AM 65.9667 -60.1333 102° East 530 610 35,000  Level Edmonton Center
Mon 03:15:10 AM 65.9667 -59.7833 90° East 530 610 35,000  Level Edmonton Center
Mon 03:16:10 AM 65.9500 -59.4333 97° East 530 610 35,000  Level Edmonton Center
Mon 03:17:10 AM 65.9167 -59.0833 103° East 530 610 35,000  Level Edmonton Center
Mon 03:18:10 AM 65.9000 -58.7500 97° East 520 598 35,000  Level Edmonton Center
Mon 03:19:10 AM 65.8667 -58.4333 104° East 520 598 35,000  Level Edmonton Center
Mon 03:20:52 AM 65.9000 -58.0167 79° East 520 598 35,000  Level Gander Center
Mon 03:21:52 AM 65.8667 -57.7000 104° East 520 598 35,000  Level Gander Center
Mon 03:22:52 AM 65.8500 -57.3833 97° East 520 598 35,000  Level Gander Center
Mon 03:23:52 AM 65.8167 -56.9833 101° East 530 610 35,000  Level Gander Center
Mon 03:24:52 AM 65.8000 -56.6667 97° East 530 610 35,000  Level Gander Center
Mon 03:25:52 AM 65.7500 -56.3000 108° East 530 610 35,000  Level Gander Center
Mon 03:26:52 AM 65.7167 -55.9500 103° East 530 610 35,000  Level Gander Center
Mon 03:27:52 AM 65.7000 -55.6333 97° East 530 610 35,000  Level Gander Center
Mon 03:28:52 AM 65.6667 -55.2833 103° East 520 598 35,000  Level Gander Center
Mon 03:29:52 AM 65.6167 -54.9333 109° East 530 610 35,000  Level Gander Center
Mon 03:30:52 AM 65.5833 -54.6167 104° East 520 598 35,000  Level Gander Center
Mon 03:31:52 AM 65.5500 -54.2667 103° East 520 598 35,000  Level Gander Center
Mon 03:32:52 AM 65.5333 -53.9167 96° East 520 598 35,000  Level Gander Center
Mon 03:33:52 AM 65.4833 -53.6000 111° Southeast 520 598 35,000  Level Gander Center
Mon 03:34:52 AM 65.4500 -53.3000 105° East 510 587 35,000  Level Gander Center
Mon 03:35:52 AM 65.4167 -52.9500 103° East 510 587 35,000  Level Gander Center
Mon 03:37:00 AM 65.3686 -52.5823 107° East  Level FlightAware
Mon 03:44:00 AM 65.0520 -50.3420 108° East  Level FlightAware
Mon 03:45:00 AM 65.0041 -50.0264 110° East  Level FlightAware
Mon 03:46:00 AM 64.9804 -49.6959 99° East  Level FlightAware
Mon 03:47:00 AM 64.9583 -49.3654 99° East  Level FlightAware
Mon 03:47:38 AM 64.9470 -49.2050 99° East 512 589 35,000  Level FlightAware
Mon 03:48:12 AM 64.9350 -49.0230 99° East 513 590 35,000  Level FlightAware
Mon 03:48:51 AM 64.9220 -48.8400 99° East 513 590 35,000  Level FlightAware
Mon 03:49:27 AM 64.9110 -48.6710 99° East 513 590 35,000  Level FlightAware
Mon 03:50:04 AM 64.8990 -48.4970 99° East 513 590 35,000  Level FlightAware
Mon 03:50:40 AM 64.8880 -48.3280 99° East 513 590 35,000  Level FlightAware
Mon 03:51:16 AM 64.8770 -48.1590 99° East 513 590 35,000  Level FlightAware
Mon 03:51:52 AM 64.8650 -47.9900 99° East 513 590 35,000  Level FlightAware
Mon 03:52:28 AM 64.8540 -47.8210 99° East 513 590 35,000  Level FlightAware
Mon 03:53:04 AM 64.8420 -47.6520 99° East 513 590 35,000  Level FlightAware
Mon 03:53:41 AM 64.8310 -47.4790 98° East 513 590 35,000  Level FlightAware
Mon 03:54:17 AM 64.8190 -47.3100 99° East 513 590 35,000  Level FlightAware
Mon 03:54:53 AM 64.8080 -47.1420 99° East 513 590 35,000  Level FlightAware
Mon 03:55:29 AM 64.7960 -46.9730 99° East 513 590 35,000  Level FlightAware
Mon 03:56:05 AM 64.7850 -46.8050 99° East 513 590 35,000  Level FlightAware
Mon 03:56:41 AM 64.7740 -46.6360 99° East 513 590 35,000  Level FlightAware
Mon 03:57:17 AM 64.7620 -46.4680 99° East 513 590 35,000  Level FlightAware
Mon 03:57:53 AM 64.7510 -46.3000 99° East 513 590 35,000  Level FlightAware
Mon 04:00:00 AM 64.6719 -45.6233 105° East  Level FlightAware
Mon 04:01:00 AM 64.6334 -45.3049 106° East  Level FlightAware
Mon 04:02:00 AM 64.5943 -44.9875 106° East  Level FlightAware
Mon 04:03:00 AM 64.5598 -44.6670 103° East  Level FlightAware
Mon 04:04:00 AM 64.5268 -44.3466 103° East  Level FlightAware
Mon 04:05:00 AM 64.4931 -44.0271 104° East  Level FlightAware
Mon 04:06:00 AM 64.4587 -43.7083 104° East  Level FlightAware
Mon 04:07:00 AM 64.4236 -43.3903 104° East  Level FlightAware
Mon 04:08:00 AM 64.3878 -43.0732 104° East  Level FlightAware
Mon 04:09:00 AM 64.3513 -42.7569 105° East  Level FlightAware
Mon 04:10:00 AM 64.3142 -42.4414 105° East  Level FlightAware
Mon 04:11:00 AM 64.2764 -42.1268 105° East  Level FlightAware
Mon 04:12:00 AM 64.2379 -41.8130 106° East  Level FlightAware
Mon 04:13:00 AM 64.1987 -41.5002 106° East  Level FlightAware
Mon 04:14:00 AM 64.1589 -41.1882 106° East  Level FlightAware
Mon 04:15:00 AM 64.1184 -40.8771 106° East  Level FlightAware
Mon 04:16:00 AM 64.0773 -40.5670 107° East  Level FlightAware
Mon 04:17:00 AM 64.0355 -40.2577 107° East  Level FlightAware
Mon 04:18:00 AM 63.9967 -39.9475 98° East  Level FlightAware
Mon 04:19:00 AM 63.9762 -39.6280 98° East  Level FlightAware
Mon 04:20:00 AM 63.9550 -39.3090 98° East  Level FlightAware
Mon 04:21:00 AM 63.9332 -38.9905 99° East  Level FlightAware
Mon 04:22:00 AM 63.9106 -38.6726 99° East  Level FlightAware
Mon 04:23:00 AM 63.8873 -38.3551 99° East  Level FlightAware
Mon 04:24:00 AM 63.8634 -38.0381 100° East  Level FlightAware
Mon 04:25:00 AM 63.8387 -37.7217 100° East  Level FlightAware
Mon 04:26:00 AM 63.8134 -37.4059 100° East  Level FlightAware
Mon 04:27:00 AM 63.7873 -37.0907 100° East  Level FlightAware
Mon 04:28:00 AM 63.7606 -36.7760 101° East  Level FlightAware
Mon 04:29:00 AM 63.7332 -36.4619 101° East  Level FlightAware
Mon 04:30:00 AM 63.7051 -36.1485 101° East  Level FlightAware
Mon 04:31:00 AM 63.6763 -35.8357 102° East  Level FlightAware
Mon 04:32:00 AM 63.6469 -35.5235 102° East  Level FlightAware
Mon 04:33:00 AM 63.6168 -35.2120 102° East  Level FlightAware
Mon 04:34:00 AM 63.5860 -34.9011 102° East  Level FlightAware
Mon 04:35:00 AM 63.5545 -34.5909 103° East  Level FlightAware
Mon 04:36:00 AM 63.5224 -34.2814 103° East  Level FlightAware
Mon 04:37:00 AM 63.4896 -33.9726 103° East  Level FlightAware
Mon 04:38:00 AM 63.4561 -33.6646 104° East  Level FlightAware
Mon 04:39:00 AM 63.4220 -33.3572 104° East  Level FlightAware
Mon 04:40:00 AM 63.3872 -33.0506 104° East  Level FlightAware
Mon 04:41:00 AM 63.3518 -32.7448 104° East  Level FlightAware
Mon 04:42:00 AM 63.3157 -32.4397 105° East  Level FlightAware
Mon 04:43:00 AM 63.2790 -32.1354 105° East  Level FlightAware
Mon 04:44:00 AM 63.2416 -31.8318 105° East  Level FlightAware
Mon 04:45:00 AM 63.2035 -31.5291 105° East  Level FlightAware
Mon 04:45:19 AM 63.1190 -30.8730 106° East 530 610 35,000  Level FlightAware
Mon 04:45:55 AM 63.0940 -30.6850 106° East 529 609 35,000  Level FlightAware
Mon 04:46:00 AM 63.1649 -31.2271 106° East  Level FlightAware
Mon 04:46:37 AM 63.0680 -30.4930 107° East 529 609 35,000  Level FlightAware
Mon 04:47:16 AM 63.0360 -30.2630 107° East 531 611 35,000  Level FlightAware
Mon 04:48:01 AM 63.0060 -30.0320 106° East 534 615 35,000  Level FlightAware
Mon 04:48:33 AM 62.9920 -29.8640 100° East 538 619 35,000  Level FlightAware
Mon 04:49:17 AM 62.9760 -29.6280 98° East 540 621 35,000  Level FlightAware
Mon 04:49:58 AM 62.9610 -29.3990 98° East 541 623 35,000  Level FlightAware
Mon 04:50:35 AM 62.9480 -29.2020 98° East 542 624 35,000  Level FlightAware
Mon 04:51:08 AM 62.9360 -29.0220 98° East 542 624 35,000  Level FlightAware
Mon 04:51:44 AM 62.9230 -28.8290 98° East 541 623 35,000  Level FlightAware
Mon 04:52:20 AM 62.9090 -28.6350 99° East 541 623 35,000  Level FlightAware
Mon 04:52:56 AM 62.8950 -28.4400 99° East 541 623 35,000  Level FlightAware
Mon 04:53:28 AM 62.8820 -28.2620 99° East 541 623 35,000  Level FlightAware
Mon 04:54:03 AM 62.8670 -28.0730 100° East 541 623 35,000  Level FlightAware
Mon 04:54:40 AM 62.8520 -27.8740 99° East 542 624 35,000  Level FlightAware
Mon 04:55:11 AM 62.8390 -27.7090 100° East 542 624 35,000  Level FlightAware
Mon 04:55:47 AM 62.8240 -27.5180 100° East 542 624 35,000  Level FlightAware
Mon 04:56:24 AM 62.8080 -27.3150 100° East 542 624 35,000  Level FlightAware
Mon 04:56:59 AM 62.7930 -27.1390 100° East 541 623 35,000  Level FlightAware
Mon 04:57:31 AM 62.7780 -26.9590 100° East 541 623 35,000  Level FlightAware
Mon 04:58:07 AM 62.7620 -26.7670 100° East 544 626 35,000  Level FlightAware
Mon 04:58:43 AM 62.7450 -26.5700 101° East 546 628 35,000  Level FlightAware
Mon 04:59:19 AM 62.7280 -26.3770 101° East 549 632 35,000  Level FlightAware
Mon 04:59:50 AM 62.7120 -26.2050 101° East 551 634 35,000  Level FlightAware
Mon 05:00:29 AM 62.6930 -25.9980 101° East 552 635 35,000  Level FlightAware
Mon 05:01:05 AM 62.6750 -25.8000 101° East 554 638 35,000  Level FlightAware
Mon 05:01:41 AM 62.6570 -25.6040 101° East 553 636 35,000  Level FlightAware
Mon 05:02:15 AM 62.6390 -25.4180 102° East 555 639 35,000  Level FlightAware
Mon 05:02:51 AM 62.6200 -25.2220 102° East 557 641 35,000  Level FlightAware
Mon 05:03:23 AM 62.6030 -25.0500 102° East 555 639 35,000  Level FlightAware
Mon 05:04:01 AM 62.5820 -24.8440 102° East 555 639 35,000  Level FlightAware
Mon 05:04:33 AM 62.5650 -24.6700 102° East 554 638 35,000  Level FlightAware
Mon 05:05:09 AM 62.5450 -24.4760 103° East 553 636 35,000  Level FlightAware
Mon 05:05:45 AM 62.5250 -24.2830 103° East 551 634 35,000  Level FlightAware
Mon 05:06:21 AM 62.5040 -24.0910 103° East 551 634 35,000  Level FlightAware
Mon 05:06:53 AM 62.4860 -23.9190 103° East 550 633 35,000  Level FlightAware
Mon 05:07:29 AM 62.4650 -23.7270 103° East 551 634 35,000  Level FlightAware
Mon 05:08:05 AM 62.4430 -23.5320 104° East 554 638 35,000  Level FlightAware
Mon 05:08:41 AM 62.4220 -23.3430 103° East 551 634 35,000  Level FlightAware
Mon 05:09:13 AM 62.4030 -23.1750 104° East 551 634 35,000  Level FlightAware
Mon 05:09:48 AM 62.3810 -22.9800 104° East 554 638 35,000  Level FlightAware
Mon 05:10:21 AM 62.3610 -22.8090 104° East 554 638 35,000  Level FlightAware
Mon 05:10:58 AM 62.3380 -22.6170 104° East 554 638 35,000  Level FlightAware
Mon 05:11:33 AM 62.3150 -22.4240 104° East 557 641 35,000  Level FlightAware
Mon 05:12:09 AM 62.2920 -22.2310 104° East 559 643 35,000  Level FlightAware
Mon 05:12:45 AM 62.2700 -22.0490 104° East 556 640 35,000  Level FlightAware
Mon 05:13:18 AM 62.2470 -21.8680 105° East 555 639 35,000  Level FlightAware
Mon 05:13:54 AM 62.2240 -21.6800 105° East 557 641 35,000  Level FlightAware
Mon 05:14:30 AM 62.1990 -21.4880 106° East 560 644 35,000  Level FlightAware
Mon 05:15:06 AM 62.1740 -21.2930 105° East 562 647 35,000  Level FlightAware
Mon 05:15:38 AM 62.1520 -21.1230 105° East 562 647 35,000  Level FlightAware
Mon 05:16:15 AM 62.1260 -20.9240 106° East 562 647 35,000  Level FlightAware
Mon 05:16:48 AM 62.1030 -20.7510 106° East 561 646 35,000  Level FlightAware
Mon 05:17:24 AM 62.0770 -20.5580 106° East 562 647 35,000  Level FlightAware
Mon 05:18:00 AM 62.0520 -20.3720 106° East 563 648 35,000  Level FlightAware
Mon 05:18:32 AM 62.0280 -20.2010 107° East 565 650 35,000  Level FlightAware
Mon 05:19:08 AM 62.0010 -20.0090 107° East 564 649 35,000  Level FlightAware
Mon 05:19:44 AM 61.9730 -19.8190 107° East 562 647 35,000  Level FlightAware
Mon 05:20:20 AM 61.9430 -19.6300 109° East 560 644 35,000  Level FlightAware
Mon 05:20:52 AM 61.9170 -19.4640 108° East 561 646 35,000  Level FlightAware
Mon 05:21:28 AM 61.8880 -19.2790 108° East 563 648 35,000  Level FlightAware
Mon 05:22:04 AM 61.8580 -19.0930 109° East 562 647 35,000  Level FlightAware
Mon 05:22:41 AM 61.8260 -18.8970 109° East 562 647 35,000  Level FlightAware
Mon 05:23:13 AM 61.7990 -18.7290 109° East 562 647 35,000  Level FlightAware
Mon 05:23:49 AM 61.7680 -18.5400 109° East 563 648 35,000  Level FlightAware
Mon 05:24:24 AM 61.7380 -18.3570 109° East 562 647 35,000  Level FlightAware
Mon 05:24:59 AM 61.7070 -18.1770 110° East 560 644 35,000  Level FlightAware
Mon 05:25:33 AM 61.6780 -18.0050 109° East 559 643 35,000  Level FlightAware
Mon 05:26:09 AM 61.6470 -17.8200 109° East 556 640 35,000  Level FlightAware
Mon 05:26:44 AM 61.6170 -17.6460 110° East 554 638 35,000  Level FlightAware
Mon 05:27:21 AM 61.5830 -17.4570 111° Southeast 555 639 35,000  Level FlightAware
Mon 05:27:52 AM 61.5570 -17.3040 110° East 556 640 35,000  Level FlightAware
Mon 05:28:28 AM 61.5240 -17.1210 111° Southeast 557 641 35,000  Level FlightAware
Mon 05:29:04 AM 61.4920 -16.9400 110° East 556 640 35,000  Level FlightAware
Mon 05:29:38 AM 61.4610 -16.7700 111° Southeast 555 639 35,000  Level FlightAware
Mon 05:30:14 AM 61.4280 -16.5880 111° Southeast 555 639 35,000  Level FlightAware
Mon 05:30:50 AM 61.3950 -16.4080 111° Southeast 556 640 35,000  Level FlightAware
Mon 05:31:25 AM 61.3620 -16.2320 111° Southeast 555 639 35,000  Level FlightAware
Mon 05:31:58 AM 61.3310 -16.0700 112° Southeast 556 640 35,000  Level FlightAware
Mon 05:32:33 AM 61.2980 -15.8950 111° Southeast 556 640 35,000  Level FlightAware
Mon 05:33:08 AM 61.2660 -15.7280 112° Southeast 554 638 35,000  Level FlightAware
Mon 05:33:44 AM 61.2320 -15.5490 111° Southeast 552 635 35,000  Level FlightAware
Mon 05:34:20 AM 61.1970 -15.3720 112° Southeast 550 633 35,000  Level FlightAware
Mon 05:34:56 AM 61.1640 -15.2000 112° Southeast 549 632 35,000  Level FlightAware
Mon 05:35:28 AM 61.1320 -15.0400 112° Southeast 550 633 35,000  Level FlightAware
Mon 05:35:58 AM 61.1050 -14.9030 112° Southeast 547 629 35,000  Level FlightAware
Mon 05:36:41 AM 61.0620 -14.6880 112° Southeast 546 628 35,000  Level FlightAware
Mon 05:37:13 AM 61.0310 -14.5400 113° Southeast 546 628 35,000  Level FlightAware
Mon 05:38:07 AM 60.9840 -14.3030 112° Southeast 545 627 35,000  Level FlightAware
Mon 05:38:44 AM 60.9540 -14.1510 112° Southeast 545 627 35,000  Level FlightAware
Mon 05:39:20 AM 60.9250 -14.0040 112° Southeast 545 627 35,000  Level FlightAware
Mon 05:39:57 AM 60.8960 -13.8530 111° Southeast 545 627 35,000  Level FlightAware
Mon 05:40:33 AM 60.8670 -13.7060 112° Southeast 545 627 35,000  Level FlightAware
Mon 05:41:11 AM 60.8360 -13.5510 112° Southeast 545 627 35,000  Level FlightAware
Mon 05:41:47 AM 60.8070 -13.4040 112° Southeast 545 627 35,000  Level FlightAware
Mon 05:42:23 AM 60.7780 -13.2580 112° Southeast 545 627 35,000  Level FlightAware
Mon 05:42:59 AM 60.7490 -13.1110 112° Southeast 545 627 35,000  Level FlightAware
Mon 05:43:35 AM 60.7200 -12.9650 112° Southeast 545 627 35,000  Level FlightAware
Mon 05:44:11 AM 60.6910 -12.8190 112° Southeast 545 627 35,000  Level FlightAware
Mon 05:44:48 AM 60.6620 -12.6680 111° Southeast 545 627 35,000  Level FlightAware
Mon 05:45:24 AM 60.6330 -12.5230 112° Southeast 545 627 35,000  Level FlightAware
Mon 05:46:00 AM 60.6040 -12.3770 112° Southeast 545 627 35,000  Level FlightAware
Mon 05:46:36 AM 60.5750 -12.2310 112° Southeast 545 627 35,000  Level FlightAware
Mon 05:47:12 AM 60.5460 -12.0860 112° Southeast 545 627 35,000  Level FlightAware
Mon 05:49:00 AM 60.3520 -11.7508 139° Southeast  Level Estimated
Mon 05:50:00 AM 60.2439 -11.5663 140° Southeast  Level Estimated
Mon 05:50:08 AM 60.2270 -10.9200 140° Southeast 35,000  Level FlightAware
Mon 05:51:09 AM 60.1630 -10.6560 116° Southeast 548 631 35,000  Level FlightAware
Mon 05:51:46 AM 60.1280 -10.5120 116° Southeast 548 631 35,000  Level FlightAware
Mon 05:52:22 AM 60.0940 -10.3720 116° Southeast 548 631 35,000  Level FlightAware
Mon 05:53:02 AM 60.0430 -10.1720 117° Southeast 549 632 35,000  Level FlightAware
Mon 05:53:42 AM 59.9900 -10.0040 122° Southeast 529 609 35,000  Level FlightAware
Mon 05:54:12 AM 59.9380 -9.9070 137° Southeast 509 586 35,000 269 Level FlightAware
Mon 05:54:49 AM 59.8640 -9.7940 143° Southeast 510 587 35,300 783 Climbing FlightAware
Mon 05:55:21 AM 59.8040 -9.7050 143° Southeast 508 585 35,900 618 Climbing FlightAware
Mon 05:55:57 AM 59.7390 -9.6090 143° Southeast 503 579 36,000 81 Climbing FlightAware
Mon 05:56:35 AM 59.6790 -9.5200 143° Southeast 503 579 36,000  Level FlightAware
Mon 05:57:09 AM 59.6110 -9.4200 143° Southeast 507 583 36,000  Level FlightAware
Mon 05:57:51 AM 59.5140 -9.2800 144° Southeast 501 577 36,000  Level FlightAware
Mon 05:58:25 AM 59.4480 -9.1830 143° Southeast 500 575 36,000  Level FlightAware
Mon 05:59:00 AM 59.3820 -9.0880 144° Southeast 501 577 36,000  Level FlightAware
Mon 05:59:32 AM 59.3129 -8.9896 144° Southeast 486 559 36,000  Level FlightAware
Mon 05:59:35 AM 59.3130 -8.9880 144° Southeast 502 578 36,000  Level FlightAware
Mon 06:00:10 AM 59.2510 -8.8990 144° Southeast 503 579 36,000  Level FlightAware
Mon 06:00:54 AM 59.1790 -8.7970 144° Southeast 511 588 36,000  Level FlightAware
Mon 06:01:28 AM 59.1100 -8.6990 144° Southeast 513 590 36,000  Level FlightAware
Mon 06:02:02 AM 59.0276 -8.5833 144° Southeast 486 559 36,000  Level FlightAware
Mon 06:02:02 AM 59.0440 -8.6060 144° Southeast 514 592 36,000  Level FlightAware
Mon 06:02:32 AM 58.9702 -8.5016 144° Southeast 484 557 36,000  Level FlightAware
Mon 06:02:39 AM 58.9770 -8.5120 144° Southeast 515 593 36,000  Level FlightAware
Mon 06:03:17 AM 58.9040 -8.4100 144° Southeast 517 595 36,000  Level FlightAware
Mon 06:03:50 AM 58.8230 -8.2970 144° Southeast 519 597 36,000  Level FlightAware
Mon 06:04:31 AM 58.7450 -8.1900 145° Southeast 518 596 36,000  Level FlightAware
Mon 06:05:07 AM 58.6760 -8.0950 144° Southeast 512 589 36,000  Level FlightAware
Mon 06:05:38 AM 58.6082 -8.0030 144° Southeast 486 559 36,000  Level FlightAware
Mon 06:05:38 AM 58.6220 -8.0220 144° Southeast 512 589 36,000  Level FlightAware
Mon 06:06:08 AM 58.5493 -7.9240 144° Southeast 486 559 36,000  Level FlightAware
Mon 06:06:16 AM 58.5390 -7.9090 144° Southeast 513 590 36,000  Level FlightAware
Mon 06:06:51 AM 58.4690 -7.8160 145° Southeast 512 589 36,000  Level FlightAware
Mon 06:07:26 AM 58.3959 -7.7188 145° Southeast 486 559 36,000  Level FlightAware
Mon 06:07:26 AM 58.4000 -7.7240 145° Southeast 513 590 36,000  Level FlightAware
Mon 06:07:57 AM 58.3360 -7.6408 145° Southeast 486 559 36,000  Level FlightAware
Mon 06:08:01 AM 58.3320 -7.6360 145° Southeast 513 590 36,000  Level FlightAware
Mon 06:08:36 AM 58.2610 -7.5440 146° Southeast 513 590 36,000  Level FlightAware
Mon 06:09:11 AM 58.1930 -7.4570 146° Southeast 518 596 36,000  Level FlightAware
Mon 06:09:47 AM 58.1230 -7.3680 146° Southeast 518 596 36,000  Level FlightAware
Mon 06:10:22 AM 58.0520 -7.2800 147° Southeast 517 595 36,000  Level FlightAware
Mon 06:11:02 AM 57.9710 -7.1800 147° Southeast 518 596 36,000  Level FlightAware
Mon 06:11:03 AM 57.9662 -7.1741 147° Southeast 486 559 36,000  Level FlightAware
Mon 06:11:45 AM 57.8821 -7.0714 147° Southeast 486 559 36,000  Level FlightAware
Mon 06:11:53 AM 57.8940 -7.0860 147° Southeast 517 595 36,000  Level FlightAware
Mon 06:12:37 AM 57.7820 -6.9520 147° Southeast 517 595 36,000  Level FlightAware
Mon 06:13:15 AM 57.7009 -6.8561 147° Southeast 486 559 36,000  Level FlightAware
Mon 06:13:17 AM 57.7000 -6.8550 147° Southeast 516 594 36,000  Level FlightAware
Mon 06:13:49 AM 57.6440 -6.7890 148° Southeast 517 595 36,000  Level FlightAware
Mon 06:14:27 AM 57.5580 -6.6900 148° Southeast 517 595 36,000  Level FlightAware
Mon 06:14:57 AM 57.4946 -6.6160 148° Southeast 486 559 36,000  Level FlightAware
Mon 06:15:02 AM 57.4890 -6.6100 148° Southeast 516 594 36,000  Level FlightAware
Mon 06:15:38 AM 57.4150 -6.5220 147° Southeast 518 596 36,000  Level FlightAware
Mon 06:16:13 AM 57.3480 -6.4400 147° Southeast 518 596 36,000  Level FlightAware
Mon 06:16:43 AM 57.2930 -6.3700 145° Southeast 517 595 36,000  Level FlightAware
Mon 06:17:23 AM 57.2080 -6.2630 146° Southeast 518 596 36,000  Level FlightAware
Mon 06:17:53 AM 57.1490 -6.1880 145° Southeast 518 596 36,000  Level FlightAware
Mon 06:18:29 AM 57.0760 -6.0960 145° Southeast 520 598 36,000  Level FlightAware
Mon 06:18:33 AM 57.0664 -6.0831 145° Southeast 486 559 36,000  Level FlightAware
Mon 06:19:03 AM 57.0071 -6.0085 145° Southeast 486 559 36,000  Level FlightAware
Mon 06:19:09 AM 56.9970 -5.9960 145° Southeast 518 596 36,000  Level FlightAware
Mon 06:19:39 AM 56.9359 -5.9194 145° Southeast 486 559 36,000  Level FlightAware
Mon 06:19:39 AM 56.9390 -5.9230 145° Southeast 518 596 36,000  Level FlightAware
Mon 06:20:14 AM 56.8710 -5.8390 145° Southeast 518 596 36,000  Level FlightAware
Mon 06:20:15 AM 56.8649 -5.8307 145° Southeast 488 562 36,000  Level FlightAware
Mon 06:20:45 AM 56.8058 -5.7573 145° Southeast 488 562 36,000  Level FlightAware
Mon 06:20:51 AM 56.7950 -5.7450 145° Southeast 516 594 36,000  Level FlightAware
Mon 06:21:26 AM 56.7280 -5.6610 145° Southeast 514 592 36,000  Level FlightAware
Mon 06:22:07 AM 56.6470 -5.5620 145° Southeast 515 593 36,000  Level FlightAware
Mon 06:22:09 AM 56.6406 -5.5541 145° Southeast 484 557 36,000  Level FlightAware
Mon 06:22:39 AM 56.5815 -5.4818 145° Southeast 484 557 36,000  Level FlightAware
Mon 06:22:45 AM 56.5730 -5.4720 145° Southeast 517 595 36,000  Level FlightAware
Mon 06:23:15 AM 56.5130 -5.3990 146° Southeast 516 594 36,000  Level FlightAware
Mon 06:23:51 AM 56.4420 -5.3120 146° Southeast 516 594 36,000  Level FlightAware
Mon 06:24:26 AM 56.3710 -5.2270 146° Southeast 516 594 36,000  Level FlightAware
Mon 06:24:27 AM 56.3677 -5.2228 146° Southeast 488 562 36,000  Level FlightAware
Mon 06:24:57 AM 56.3080 -5.1510 146° Southeast 486 559 36,000  Level FlightAware
Mon 06:25:02 AM 56.3000 -5.1420 146° Southeast 515 593 36,000  Level FlightAware
Mon 06:25:33 AM 56.2368 -5.0661 146° Southeast 484 557 36,000  Level FlightAware
Mon 06:25:37 AM 56.2310 -5.0590 146° Southeast 515 593 36,000  Level FlightAware
Mon 06:26:13 AM 56.1610 -4.9750 146° Southeast 516 594 36,000  Level FlightAware
Mon 06:26:48 AM 56.0910 -4.8930 147° Southeast 518 596 36,000  Level FlightAware
Mon 06:27:23 AM 56.0210 -4.8100 146° Southeast 519 597 36,000  Level FlightAware
Mon 06:27:54 AM 55.9620 -4.7410 147° Southeast 520 598 36,000  Level FlightAware
Mon 06:28:34 AM 55.8780 -4.6420 147° Southeast 522 601 36,000  Level FlightAware
Mon 06:29:14 AM 55.7980 -4.5500 147° Southeast 517 595 36,000 158 Level FlightAware
Mon 06:29:50 AM 55.7250 -4.4650 147° Southeast 519 597 36,200 162 Climbing FlightAware
Mon 06:29:51 AM 55.7210 -4.4605 147° Southeast 484 557 36,100 387 Descending FlightAware
Mon 06:30:21 AM 55.6610 -4.3915 147° Southeast 480 552 36,400 706 Climbing FlightAware
Mon 06:30:25 AM 55.6560 -4.3850 147° Southeast 516 594 36,500 667 Climbing FlightAware
Mon 06:30:57 AM 55.5890 -4.3088 147° Southeast 480 552 36,800 563 Climbing FlightAware
Mon 06:30:57 AM 55.5970 -4.3180 147° Southeast 514 592 36,800 300 Level FlightAware
Mon 06:31:37 AM 55.5120 -4.2210 147° Southeast 519 597 37,000 158 Climbing FlightAware
Mon 06:32:13 AM 55.4400 -4.1390 147° Southeast 521 600 37,000  Level FlightAware
Mon 06:32:43 AM 55.3800 -4.0700 147° Southeast 520 598 37,000  Level FlightAware
Mon 06:33:18 AM 55.3080 -3.9890 147° Southeast 520 598 37,000  Level FlightAware
Mon 06:33:54 AM 55.2360 -3.9090 148° Southeast 521 600 37,000  Level FlightAware
Mon 06:34:29 AM 55.1670 -3.8310 147° Southeast 522 601 37,000  Level FlightAware
Mon 06:35:03 AM 55.0922 -3.7481 147° Southeast 484 557 37,000  Level FlightAware
Mon 06:35:04 AM 55.0930 -3.7490 147° Southeast 522 601 37,000  Level FlightAware
Mon 06:35:45 AM 55.0100 -3.6570 148° Southeast 521 600 37,000  Level FlightAware
Mon 06:36:20 AM 54.9390 -3.5780 147° Southeast 521 600 37,000  Level FlightAware
Mon 06:36:55 AM 54.8690 -3.5010 147° Southeast 523 602 37,000  Level FlightAware
Mon 06:36:57 AM 54.8606 -3.4924 147° Southeast 482 555 37,000  Level FlightAware
Mon 06:37:27 AM 54.7995 -3.4254 147° Southeast 482 555 37,000  Level FlightAware
Mon 06:37:31 AM 54.7970 -3.4220 147° Southeast 524 603 37,000  Level FlightAware
Mon 06:38:06 AM 54.7210 -3.3450 150° Southeast 521 600 37,000  Level FlightAware
Mon 06:38:41 AM 54.6500 -3.2860 154° Southeast 518 596 37,000  Level FlightAware
Mon 06:39:17 AM 54.5700 -3.2290 158° South 519 597 37,000  Level FlightAware
Mon 06:39:47 AM 54.4980 -3.1820 159° South 517 595 37,000  Level FlightAware
Mon 06:40:27 AM 54.4170 -3.1310 160° South 515 593 37,000  Level FlightAware
Mon 06:41:02 AM 54.3320 -3.0780 160° South 514 592 37,000  Level FlightAware
Mon 06:41:37 AM 54.2540 -3.0310 161° South 512 589 37,000  Level FlightAware
Mon 06:42:12 AM 54.1770 -2.9840 160° South 511 588 37,000  Level FlightAware
Mon 06:42:47 AM 54.1020 -2.9390 161° South 511 588 37,000  Level FlightAware
Mon 06:43:29 AM 54.0050 -2.8810 161° South 510 587 37,000  Level FlightAware
Mon 06:43:59 AM 53.9380 -2.8400 160° South 509 586 37,000  Level FlightAware
Mon 06:44:41 AM 53.8450 -2.7840 160° South 509 586 37,000  Level FlightAware
Mon 06:45:15 AM 53.7710 -2.7400 161° South 508 585 37,000  Level FlightAware
Mon 06:45:47 AM 53.6972 -2.6957 160° South 507 583 37,000  Level FlightAware
Mon 06:46:30 AM 53.6013 -2.6386 161° South 508 585 37,000  Level FlightAware
Mon 06:47:16 AM 53.5001 -2.5787 161° South 482 555 37,000  Level FlightAware
Mon 06:47:36 AM 53.4570 -2.5530 161° South 505 581 37,000  Level FlightAware
Mon 06:48:09 AM 53.3870 -2.5120 161° South 505 581 37,000  Level FlightAware
Mon 06:48:46 AM 53.3060 -2.4650 161° South 504 580 37,000  Level FlightAware
Mon 06:49:03 AM 53.2661 -2.4412 160° South 504 580 37,000  Level FlightAware
Mon 06:49:54 AM 53.1560 -2.3770 161° South 503 579 37,000  Level FlightAware
Mon 06:50:03 AM 53.1333 -2.3640 161° South 503 579 37,000 -933 Level FlightAware
Mon 06:50:39 AM 53.0560 -2.3175 160° South 505 581 36,300 -1,644 Descending FlightAware
Mon 06:51:16 AM 52.9792 -2.2462 160° South 486 559 35,000 -2,353 Descending FlightAware
Mon 06:51:30 AM 52.9525 -2.2155 160° South 505 581 34,300 -2,857 Descending FlightAware
Mon 06:51:37 AM 52.9385 -2.1990 145° Southeast 517 595 34,000 -2,933 Descending FlightAware
Mon 06:52:15 AM 52.8640 -2.1120 145° Southeast 520 598 32,100 -2,880 Descending FlightAware
Mon 06:52:52 AM 52.7940 -2.0300 145° Southeast 518 596 30,400 -2,583 Descending FlightAware
Mon 06:53:27 AM 52.7236 -1.9503 146° Southeast 508 585 29,000 -2,328 Descending FlightAware
Mon 06:53:59 AM 52.6616 -1.8800 145° Southeast 500 575 27,800 -2,149 Descending FlightAware
Mon 06:54:34 AM 52.5977 -1.8076 145° Southeast 493 567 26,600 -2,123 Descending FlightAware
Mon 06:55:04 AM 52.5407 -1.7438 146° Southeast 482 555 25,500 -2,164 Descending FlightAware
Mon 06:55:35 AM 52.4848 -1.6808 146° Southeast 474 545 24,400 -2,095 Descending FlightAware
Mon 06:56:07 AM 52.4270 -1.6161 146° Southeast 465 535 23,300 -2,000 Descending FlightAware
Mon 06:56:38 AM 52.3738 -1.5585 147° Southeast 458 527 22,300 -1,967 Descending FlightAware
Mon 06:57:08 AM 52.3213 -1.5010 146° Southeast 451 519 21,300 -2,000 Descending FlightAware
Mon 06:57:38 AM 52.2691 -1.4434 146° Southeast 446 513 20,300 -1,700 Descending FlightAware
Mon 06:58:08 AM 52.2180 -1.3876 146° Southeast 433 498 19,600 -1,475 Descending FlightAware
Mon 06:58:39 AM 52.1683 -1.3335 146° Southeast 424 488 18,800 -1,770 Descending FlightAware
Mon 06:59:09 AM 52.1194 -1.2797 146° Southeast 418 481 17,800 -1,869 Descending FlightAware
Mon 06:59:40 AM 52.0705 -1.2261 146° Southeast 411 473 16,900 -1,742 Descending FlightAware
Mon 07:00:11 AM 52.0221 -1.1737 146° Southeast 406 467 16,000 -1,869 Descending FlightAware
Mon 07:00:41 AM 51.9747 -1.1233 147° Southeast 398 458 15,000 -1,672 Descending FlightAware
Mon 07:01:12 AM 51.9284 -1.0725 146° Southeast 380 437 14,300 -1,258 Descending FlightAware
Mon 07:01:43 AM 51.8855 -1.0263 146° Southeast 349 402 13,700 -1,263 Descending FlightAware
Mon 07:01:50 AM 51.8767 -1.0137 139° Southeast 342 394 13,500 -1,765 Descending FlightAware
Mon 07:02:00 AM 51.8664 -0.9957 133° Southeast 331 381 13,200 -1,765 Descending FlightAware
Mon 07:02:07 AM 51.8605 -0.9831 127° Southeast 329 379 13,000 -1,714 Descending FlightAware
Mon 07:02:14 AM 51.8547 -0.9666 120° Southeast 326 375 12,800 -1,895 Descending FlightAware
Mon 07:02:45 AM 51.8368 -0.9002 114° Southeast 320 368 11,800 -2,069 Descending FlightAware
Mon 07:03:12 AM 51.8193 -0.8403 115° Southeast 319 367 10,800 -2,038 Descending FlightAware
Mon 07:03:38 AM 51.8024 -0.7873 117° Southeast 316 364 10,000 -1,902 Descending FlightAware
Mon 07:03:53 AM 51.7918 -0.7549 118° Southeast 315 362 9,500 -2,129 Descending FlightAware
Mon 07:04:09 AM 51.7813 -0.7238 119° Southeast 313 360 8,900 -2,129 Descending FlightAware
Mon 07:04:24 AM 51.7705 -0.6919 119° Southeast 312 359 8,400 -1,600 Descending FlightAware
Mon 07:04:39 AM 51.7600 -0.6603 118° Southeast 314 361 8,100 -750 Descending FlightAware
Mon 07:04:56 AM 51.7492 -0.6261 117° Southeast 305 351 8,000 -188 Descending FlightAware
Mon 07:05:11 AM 51.7401 -0.5961 116° Southeast 291 335 8,000  Level FlightAware
Mon 07:05:26 AM 51.7313 -0.5672 116° Southeast 283 326 8,000  Level FlightAware
Mon 07:05:40 AM 51.7238 -0.5425 116° Southeast 280 322 8,000  Level FlightAware
Mon 07:05:56 AM 51.7142 -0.5130 118° Southeast 284 327 8,000  Level FlightAware
Mon 07:06:11 AM 51.7047 -0.4839 118° Southeast 283 326 8,000  Level FlightAware
Mon 07:06:27 AM 51.6952 -0.4545 117° Southeast 283 326 8,000  Level FlightAware
Mon 07:06:42 AM 51.6861 -0.4261 117° Southeast 282 325 8,000  Level FlightAware
Mon 07:06:59 AM 51.6759 -0.3950 118° Southeast 281 323 8,000  Level FlightAware
Mon 07:07:15 AM 51.6659 -0.3646 118° Southeast 283 326 8,000  Level FlightAware
Mon 07:07:32 AM 51.6559 -0.3342 118° Southeast 282 325 8,000 -375 Level FlightAware
Mon 07:07:47 AM 51.6468 -0.3064 118° Southeast 282 325 7,800 -800 Descending FlightAware
Mon 07:08:02 AM 51.6375 -0.2784 118° Southeast 280 322 7,600 -1,000 Descending FlightAware
Mon 07:08:17 AM 51.6280 -0.2505 119° Southeast 277 319 7,300 -968 Descending FlightAware
Mon 07:08:33 AM 51.6183 -0.2220 119° Southeast 276 318 7,100 -938 Descending FlightAware
Mon 07:08:49 AM 51.6087 -0.1939 119° Southeast 273 314 6,800 -1,161 Descending FlightAware
Mon 07:09:04 AM 51.5994 -0.1666 119° Southeast 272 313 6,500 -1,161 Descending FlightAware
Mon 07:09:20 AM 51.5899 -0.1388 119° Southeast 265 305 6,200 -750 Descending FlightAware
Mon 07:09:36 AM 51.5809 -0.1129 119° Southeast 246 283 6,100 -563 Descending FlightAware
Mon 07:09:52 AM 51.5722 -0.0883 120° Southeast 234 269 5,900 -1,091 Descending FlightAware
Mon 07:09:58 AM 51.5689 -0.0796 121° Southeast 230 265 5,700 -1,385 Descending FlightAware
Mon 07:10:05 AM 51.5637 -0.0702 132° Southeast 227 261 5,600 -923 Descending FlightAware
Mon 07:10:11 AM 51.5587 -0.0646 145° Southeast 221 254 5,500 -1,000 Descending FlightAware
Mon 07:10:17 AM 51.5533 -0.0610 158° South 218 251 5,400 -1,000 Descending FlightAware
Mon 07:10:23 AM 51.5476 -0.0590 168° South 215 247 5,300 -1,500 Descending FlightAware
Mon 07:10:29 AM 51.5418 -0.0578 172° South 213 245 5,100 -1,636 Descending FlightAware
Mon 07:10:45 AM 51.5265 -0.0555 175° South 212 244 4,700 -1,355 Descending FlightAware
Mon 07:11:00 AM 51.5117 -0.0536 175° South 212 244 4,400 -1,250 Descending FlightAware
Mon 07:11:09 AM 51.5032 -0.0540 182° South 209 241 4,200 -1,263 Descending FlightAware
Mon 07:11:19 AM 51.4939 -0.0600 202° Southwest 204 235 4,000 -1,125 Descending FlightAware
Mon 07:11:25 AM 51.4900 -0.0654 221° Southwest 200 230 3,900 -750 Descending FlightAware
Mon 07:11:35 AM 51.4846 -0.0769 233° Southwest 199 229 3,800 -720 Descending FlightAware
Mon 07:11:50 AM 51.4772 -0.0969 239° Southwest 199 229 3,600 -581 Descending FlightAware
Mon 07:12:06 AM 51.4699 -0.1163 239° Southwest 194 223 3,500 -480 Descending FlightAware
Mon 07:12:15 AM 51.4669 -0.1281 248° West 191 220 3,400 -429 Descending FlightAware
Mon 07:12:20 AM 51.4660 -0.1353 259° West 192 221 3,400 -500 Level FlightAware
Mon 07:12:27 AM 51.4655 -0.1445 265° West 193 222 3,300 -1,500 Descending FlightAware
Mon 07:12:32 AM 51.4655 -0.1525 270° West 195 224 3,100 -1,200 Descending FlightAware
Mon 07:12:47 AM 51.4656 -0.1735 270° West 182 209 2,900 -938 Descending FlightAware
Mon 07:13:04 AM 51.4655 -0.1949 270° West 167 192 2,600 -1,000 Descending FlightAware
Mon 07:13:23 AM 51.4654 -0.2176 270° West 164 189 2,300 -900 Descending FlightAware
Mon 07:13:44 AM 51.4654 -0.2429 270° West 163 188 2,000 -900 Descending FlightAware
Mon 07:14:23 AM 51.4653 -0.2923 270° West 170 196 1,400 -894 Descending FlightAware
Mon 07:14:31 AM 51.4650 -0.2990 270° West 167 192 1,300 -828 Descending FlightAware
Mon 07:14:52 AM 51.4650 -0.3260 270° West 159 183 1,000 -750 Descending FlightAware (CYTZ)
Mon 07:15:11 AM 51.4650 -0.3450 270° West 148 170 800 -615 Descending FlightAware
Mon 07:15:31 AM 51.4650 -0.3670 270° West 146 168 600 -783 Descending FlightAware
Mon 07:15:57 AM 51.4650 -0.3970 270° West 146 168 200 -923 Descending FlightAware
Mon 07:16:13 AM 51.4650 -0.4130 270° West 151 174 -750 Descending FlightAware
Mon 07:16:33 AM 51.4650 -0.4310 270° West 149 171  Level FlightAware
Mon 07:17:00 AM 51.4650 -0.4570 270° West 149 171  Level FlightAware

Login

Don't have an account? Register now (free) for customized features, flight alerts, and more!